HEBA/HBE METAR and TAF weather

Enter ICAO airport designator
Station Type Date Time Source
HEBA METAR 2018/12/10 17:00 UTC NOAA

HEBA 101700Z 23005KT 9999 FEW020 16/10 Q1017 NOSIG


Station Type Date Time Source
HEBA Decoded METAR 2018/12/10 17:00 UTC NOAA

Alexandria Borg El Arab, Egypt (HEBA) 31-31N 030-10E
Dec 10, 2018 - 12:00 PM EST / 2018.12.10 1700 UTC
Wind: from the SW (230 degrees) at 6 MPH (5 KT):0
Visibility: greater than 7 mile(s):0
Sky conditions: mostly clear
Temperature: 60 F (16 C)
Dew Point: 50 F (10 C)
Relative Humidity: 67%
Pressure (altimeter): 30.03 in. Hg (1017 hPa)
ob: HEBA 101700Z 23005KT 9999 FEW020 16/10 Q1017 NOSIG
cycle: 17

Station Type Date Time Source
HEBA TAF 2018/12/10 18:45 UTC NOAA

TAF HEBA 101700Z 1018/1124 24010G20KT 9999 SCT020


Example: see airport list